sensor_id;sensor_type;location;lat;lon;timestamp;P1;durP1;ratioP1;P2;durP2;ratioP2
23117;SDS011;11728;50.624;6.014;2022-08-05T00:01:43;10.35;;;5.10;;
23117;SDS011;11728;50.624;6.014;2022-08-05T00:06:44;8.82;;;5.28;;
23117;SDS011;11728;50.624;6.014;2022-08-05T00:11:46;11.07;;;5.90;;
23117;SDS011;11728;50.624;6.014;2022-08-05T00:16:47;8.55;;;5.68;;
23117;SDS011;11728;50.624;6.014;2022-08-05T00:21:47;10.45;;;5.55;;
23117;SDS011;11728;50.624;6.014;2022-08-05T00:26:48;9.15;;;5.60;;
23117;SDS011;11728;50.624;6.014;2022-08-05T00:31:49;11.73;;;5.75;;
23117;SDS011;11728;50.624;6.014;2022-08-05T00:36:49;7.95;;;5.35;;
23117;SDS011;11728;50.624;6.014;2022-08-05T00:41:50;10.15;;;5.72;;
23117;SDS011;11728;50.624;6.014;2022-08-05T00:46:50;10.35;;;5.43;;
23117;SDS011;11728;50.624;6.014;2022-08-05T00:51:51;9.82;;;5.55;;
23117;SDS011;11728;50.624;6.014;2022-08-05T00:56:51;8.57;;;5.03;;
23117;SDS011;11728;50.624;6.014;2022-08-05T01:01:52;8.23;;;5.22;;
23117;SDS011;11728;50.624;6.014;2022-08-05T01:06:52;8.15;;;5.47;;
23117;SDS011;11728;50.624;6.014;2022-08-05T01:11:53;10.52;;;5.20;;
23117;SDS011;11728;50.624;6.014;2022-08-05T01:27:48;12.18;;;5.57;;
23117;SDS011;11728;50.624;6.014;2022-08-05T01:33:09;10.07;;;6.88;;
23117;SDS011;11728;50.624;6.014;2022-08-05T01:38:14;8.60;;;6.32;;
23117;SDS011;11728;50.624;6.014;2022-08-05T01:43:17;19.83;;;8.25;;
23117;SDS011;11728;50.624;6.014;2022-08-05T01:48:19;22.00;;;10.32;;
23117;SDS011;11728;50.624;6.014;2022-08-05T01:53:21;15.65;;;10.43;;
23117;SDS011;11728;50.624;6.014;2022-08-05T01:58:23;10.75;;;9.00;;
23117;SDS011;11728;50.624;6.014;2022-08-05T02:03:32;11.05;;;8.27;;
23117;SDS011;11728;50.624;6.014;2022-08-05T02:08:36;11.30;;;8.30;;
23117;SDS011;11728;50.624;6.014;2022-08-05T02:18:47;10.95;;;8.45;;
23117;SDS011;11728;50.624;6.014;2022-08-05T02:23:54;10.25;;;8.35;;
23117;SDS011;11728;50.624;6.014;2022-08-05T02:28:58;10.02;;;8.50;;
23117;SDS011;11728;50.624;6.014;2022-08-05T02:34:06;10.63;;;8.80;;
23117;SDS011;11728;50.624;6.014;2022-08-05T02:39:08;11.05;;;9.05;;
23117;SDS011;11728;50.624;6.014;2022-08-05T02:44:10;10.05;;;9.07;;
23117;SDS011;11728;50.624;6.014;2022-08-05T02:49:13;8.68;;;7.88;;
23117;SDS011;11728;50.624;6.014;2022-08-05T02:54:15;10.70;;;9.48;;
23117;SDS011;11728;50.624;6.014;2022-08-05T02:59:17;9.50;;;8.60;;
23117;SDS011;11728;50.624;6.014;2022-08-05T03:04:19;10.02;;;8.60;;
23117;SDS011;11728;50.624;6.014;2022-08-05T03:09:19;9.07;;;8.23;;
23117;SDS011;11728;50.624;6.014;2022-08-05T03:14:20;9.45;;;8.13;;
23117;SDS011;11728;50.624;6.014;2022-08-05T03:19:21;10.45;;;9.35;;
23117;SDS011;11728;50.624;6.014;2022-08-05T03:24:21;10.38;;;9.35;;
23117;SDS011;11728;50.624;6.014;2022-08-05T03:29:22;11.43;;;9.85;;
23117;SDS011;11728;50.624;6.014;2022-08-05T03:34:23;9.68;;;8.70;;
23117;SDS011;11728;50.624;6.014;2022-08-05T03:39:26;10.80;;;9.52;;
23117;SDS011;11728;50.624;6.014;2022-08-05T03:44:26;12.55;;;10.07;;
23117;SDS011;11728;50.624;6.014;2022-08-05T03:49:27;9.30;;;8.40;;
23117;SDS011;11728;50.624;6.014;2022-08-05T03:54:29;9.80;;;8.77;;
23117;SDS011;11728;50.624;6.014;2022-08-05T03:59:36;12.82;;;10.50;;
23117;SDS011;11728;50.624;6.014;2022-08-05T04:04:43;12.30;;;11.10;;
23117;SDS011;11728;50.624;6.014;2022-08-05T04:09:44;17.98;;;13.52;;
23117;SDS011;11728;50.624;6.014;2022-08-05T04:14:45;15.30;;;13.68;;
23117;SDS011;11728;50.624;6.014;2022-08-05T04:19:46;15.30;;;13.70;;
23117;SDS011;11728;50.624;6.014;2022-08-05T04:24:48;15.77;;;14.15;;
23117;SDS011;11728;50.624;6.014;2022-08-05T04:29:48;16.88;;;14.68;;
23117;SDS011;11728;50.624;6.014;2022-08-05T04:34:49;16.77;;;15.18;;
23117;SDS011;11728;50.624;6.014;2022-08-05T04:39:49;15.63;;;14.02;;
23117;SDS011;11728;50.624;6.014;2022-08-05T04:44:50;14.38;;;12.98;;
23117;SDS011;11728;50.624;6.014;2022-08-05T04:49:50;17.60;;;15.70;;
23117;SDS011;11728;50.624;6.014;2022-08-05T04:54:51;17.63;;;15.15;;
23117;SDS011;11728;50.624;6.014;2022-08-05T04:59:51;17.10;;;15.45;;
23117;SDS011;11728;50.624;6.014;2022-08-05T05:04:52;16.90;;;15.30;;
23117;SDS011;11728;50.624;6.014;2022-08-05T05:09:52;17.95;;;15.77;;
23117;SDS011;11728;50.624;6.014;2022-08-05T05:14:53;15.95;;;14.25;;
23117;SDS011;11728;50.624;6.014;2022-08-05T05:19:53;17.05;;;15.25;;
23117;SDS011;11728;50.624;6.014;2022-08-05T05:24:54;19.77;;;16.30;;
23117;SDS011;11728;50.624;6.014;2022-08-05T05:29:55;19.45;;;16.25;;
23117;SDS011;11728;50.624;6.014;2022-08-05T05:34:55;18.77;;;15.75;;
23117;SDS011;11728;50.624;6.014;2022-08-05T05:39:56;19.48;;;16.92;;
23117;SDS011;11728;50.624;6.014;2022-08-05T05:44:56;18.73;;;16.75;;
23117;SDS011;11728;50.624;6.014;2022-08-05T05:49:57;20.10;;;17.58;;
23117;SDS011;11728;50.624;6.014;2022-08-05T05:54:58;19.80;;;17.42;;
23117;SDS011;11728;50.624;6.014;2022-08-05T05:59:59;20.80;;;18.55;;
23117;SDS011;11728;50.624;6.014;2022-08-05T06:05:00;21.52;;;17.45;;
23117;SDS011;11728;50.624;6.014;2022-08-05T06:10:01;20.83;;;17.80;;
23117;SDS011;11728;50.624;6.014;2022-08-05T06:15:02;19.85;;;17.40;;
23117;SDS011;11728;50.624;6.014;2022-08-05T06:20:04;20.77;;;17.58;;
23117;SDS011;11728;50.624;6.014;2022-08-05T06:25:05;24.92;;;20.60;;
23117;SDS011;11728;50.624;6.014;2022-08-05T06:30:08;25.80;;;21.35;;
23117;SDS011;11728;50.624;6.014;2022-08-05T06:35:14;25.35;;;21.15;;
23117;SDS011;11728;50.624;6.014;2022-08-05T06:40:15;29.88;;;22.88;;
23117;SDS011;11728;50.624;6.014;2022-08-05T06:45:15;27.70;;;24.00;;
23117;SDS011;11728;50.624;6.014;2022-08-05T06:50:16;29.60;;;23.92;;
23117;SDS011;11728;50.624;6.014;2022-08-05T06:55:16;35.15;;;27.33;;
23117;SDS011;11728;50.624;6.014;2022-08-05T07:00:17;34.15;;;27.00;;
23117;SDS011;11728;50.624;6.014;2022-08-05T07:05:18;31.02;;;25.58;;
23117;SDS011;11728;50.624;6.014;2022-08-05T07:10:18;33.80;;;26.35;;
23117;SDS011;11728;50.624;6.014;2022-08-05T07:15:19;30.40;;;23.25;;
23117;SDS011;11728;50.624;6.014;2022-08-05T07:20:38;28.20;;;22.95;;
23117;SDS011;11728;50.624;6.014;2022-08-05T07:25:39;28.73;;;22.30;;
23117;SDS011;11728;50.624;6.014;2022-08-05T07:30:39;26.17;;;20.55;;
23117;SDS011;11728;50.624;6.014;2022-08-05T07:35:40;22.27;;;18.27;;
23117;SDS011;11728;50.624;6.014;2022-08-05T07:40:41;20.42;;;16.63;;
23117;SDS011;11728;50.624;6.014;2022-08-05T07:45:42;23.38;;;18.20;;
23117;SDS011;11728;50.624;6.014;2022-08-05T07:50:43;20.55;;;15.30;;
23117;SDS011;11728;50.624;6.014;2022-08-05T07:55:43;18.65;;;15.00;;
23117;SDS011;11728;50.624;6.014;2022-08-05T08:00:44;14.70;;;13.07;;
23117;SDS011;11728;50.624;6.014;2022-08-05T08:05:45;14.68;;;12.05;;
23117;SDS011;11728;50.624;6.014;2022-08-05T08:10:45;11.30;;;10.10;;
23117;SDS011;11728;50.624;6.014;2022-08-05T08:15:46;6.65;;;4.68;;
23117;SDS011;11728;50.624;6.014;2022-08-05T08:20:47;4.65;;;3.50;;
23117;SDS011;11728;50.624;6.014;2022-08-05T08:25:50;4.63;;;3.00;;
23117;SDS011;11728;50.624;6.014;2022-08-05T08:30:50;4.72;;;2.90;;
23117;SDS011;11728;50.624;6.014;2022-08-05T08:35:51;3.67;;;2.90;;
23117;SDS011;11728;50.624;6.014;2022-08-05T08:40:51;4.15;;;3.55;;
23117;SDS011;11728;50.624;6.014;2022-08-05T08:45:53;4.75;;;3.42;;
23117;SDS011;11728;50.624;6.014;2022-08-05T08:50:55;4.20;;;3.50;;
23117;SDS011;11728;50.624;6.014;2022-08-05T08:55:56;7.03;;;3.80;;
23117;SDS011;11728;50.624;6.014;2022-08-05T09:00:57;5.15;;;3.33;;
23117;SDS011;11728;50.624;6.014;2022-08-05T09:05:57;6.97;;;4.10;;
23117;SDS011;11728;50.624;6.014;2022-08-05T09:11:00;5.35;;;3.78;;
23117;SDS011;11728;50.624;6.014;2022-08-05T09:16:02;5.70;;;3.22;;
23117;SDS011;11728;50.624;6.014;2022-08-05T09:21:03;7.00;;;3.65;;
23117;SDS011;11728;50.624;6.014;2022-08-05T09:26:08;6.38;;;3.15;;
23117;SDS011;11728;50.624;6.014;2022-08-05T09:31:11;5.75;;;3.15;;
23117;SDS011;11728;50.624;6.014;2022-08-05T09:36:13;5.25;;;3.33;;
23117;SDS011;11728;50.624;6.014;2022-08-05T09:41:13;4.30;;;2.83;;
23117;SDS011;11728;50.624;6.014;2022-08-05T09:51:34;5.63;;;2.33;;
23117;SDS011;11728;50.624;6.014;2022-08-05T09:56:38;4.28;;;2.75;;
23117;SDS011;11728;50.624;6.014;2022-08-05T10:01:41;3.65;;;2.80;;
23117;SDS011;11728;50.624;6.014;2022-08-05T10:06:54;7.30;;;3.70;;
23117;SDS011;11728;50.624;6.014;2022-08-05T10:12:08;6.20;;;3.17;;
23117;SDS011;11728;50.624;6.014;2022-08-05T10:17:12;5.00;;;3.38;;
23117;SDS011;11728;50.624;6.014;2022-08-05T10:22:14;7.15;;;4.30;;
23117;SDS011;11728;50.624;6.014;2022-08-05T10:27:15;6.97;;;4.10;;
23117;SDS011;11728;50.624;6.014;2022-08-05T10:32:16;6.53;;;3.83;;
23117;SDS011;11728;50.624;6.014;2022-08-05T10:37:16;11.25;;;4.13;;
23117;SDS011;11728;50.624;6.014;2022-08-05T10:42:20;6.97;;;4.15;;
23117;SDS011;11728;50.624;6.014;2022-08-05T10:47:29;8.15;;;4.28;;
23117;SDS011;11728;50.624;6.014;2022-08-05T10:52:46;9.88;;;4.35;;
23117;SDS011;11728;50.624;6.014;2022-08-05T10:58:08;10.15;;;4.88;;
23117;SDS011;11728;50.624;6.014;2022-08-05T11:03:10;8.20;;;4.70;;
23117;SDS011;11728;50.624;6.014;2022-08-05T11:08:12;7.90;;;3.60;;
23117;SDS011;11728;50.624;6.014;2022-08-05T11:13:23;7.85;;;3.45;;
23117;SDS011;11728;50.624;6.014;2022-08-05T11:18:40;6.40;;;3.78;;
23117;SDS011;11728;50.624;6.014;2022-08-05T11:23:50;6.82;;;3.47;;
23117;SDS011;11728;50.624;6.014;2022-08-05T11:28:52;9.88;;;3.85;;
23117;SDS011;11728;50.624;6.014;2022-08-05T11:33:55;10.50;;;4.30;;
23117;SDS011;11728;50.624;6.014;2022-08-05T11:39:01;7.65;;;4.60;;
23117;SDS011;11728;50.624;6.014;2022-08-05T11:44:06;9.45;;;4.20;;
23117;SDS011;11728;50.624;6.014;2022-08-05T11:49:12;9.93;;;4.25;;
23117;SDS011;11728;50.624;6.014;2022-08-05T11:54:19;5.43;;;3.50;;
23117;SDS011;11728;50.624;6.014;2022-08-05T11:59:33;6.25;;;3.25;;
23117;SDS011;11728;50.624;6.014;2022-08-05T12:04:40;5.85;;;3.50;;
23117;SDS011;11728;50.624;6.014;2022-08-05T12:09:53;6.00;;;3.40;;
23117;SDS011;11728;50.624;6.014;2022-08-05T12:14:56;6.25;;;3.38;;
23117;SDS011;11728;50.624;6.014;2022-08-05T12:19:57;6.05;;;3.88;;
23117;SDS011;11728;50.624;6.014;2022-08-05T12:24:58;7.90;;;4.07;;
23117;SDS011;11728;50.624;6.014;2022-08-05T12:30:05;6.67;;;3.53;;
23117;SDS011;11728;50.624;6.014;2022-08-05T12:35:09;5.68;;;2.83;;
23117;SDS011;11728;50.624;6.014;2022-08-05T12:40:10;10.23;;;4.35;;
23117;SDS011;11728;50.624;6.014;2022-08-05T12:45:11;7.10;;;3.75;;
23117;SDS011;11728;50.624;6.014;2022-08-05T12:50:13;7.25;;;4.80;;
23117;SDS011;11728;50.624;6.014;2022-08-05T12:55:23;7.05;;;4.20;;
23117;SDS011;11728;50.624;6.014;2022-08-05T13:00:26;7.70;;;3.90;;
23117;SDS011;11728;50.624;6.014;2022-08-05T13:05:29;8.98;;;4.38;;
23117;SDS011;11728;50.624;6.014;2022-08-05T13:10:30;7.45;;;4.60;;
23117;SDS011;11728;50.624;6.014;2022-08-05T13:15:32;7.85;;;5.07;;
23117;SDS011;11728;50.624;6.014;2022-08-05T13:20:33;8.23;;;5.07;;
23117;SDS011;11728;50.624;6.014;2022-08-05T13:25:34;6.75;;;4.45;;
23117;SDS011;11728;50.624;6.014;2022-08-05T13:30:35;8.90;;;4.90;;
23117;SDS011;11728;50.624;6.014;2022-08-05T13:35:35;8.93;;;5.13;;
23117;SDS011;11728;50.624;6.014;2022-08-05T13:40:36;8.18;;;4.28;;
23117;SDS011;11728;50.624;6.014;2022-08-05T13:45:37;8.63;;;4.30;;
23117;SDS011;11728;50.624;6.014;2022-08-05T13:50:37;7.97;;;4.65;;
23117;SDS011;11728;50.624;6.014;2022-08-05T13:55:38;6.40;;;4.10;;
23117;SDS011;11728;50.624;6.014;2022-08-05T14:00:39;7.80;;;4.45;;
23117;SDS011;11728;50.624;6.014;2022-08-05T14:05:39;7.07;;;4.38;;
23117;SDS011;11728;50.624;6.014;2022-08-05T14:10:40;9.95;;;4.72;;
23117;SDS011;11728;50.624;6.014;2022-08-05T14:15:41;9.32;;;4.95;;
23117;SDS011;11728;50.624;6.014;2022-08-05T14:20:41;8.60;;;4.20;;
23117;SDS011;11728;50.624;6.014;2022-08-05T14:25:42;5.50;;;2.63;;
23117;SDS011;11728;50.624;6.014;2022-08-05T14:30:42;7.05;;;2.95;;
23117;SDS011;11728;50.624;6.014;2022-08-05T14:35:43;5.57;;;2.58;;
23117;SDS011;11728;50.624;6.014;2022-08-05T14:40:43;5.70;;;2.65;;
23117;SDS011;11728;50.624;6.014;2022-08-05T14:45:44;4.88;;;2.22;;
23117;SDS011;11728;50.624;6.014;2022-08-05T14:50:44;5.18;;;2.75;;
23117;SDS011;11728;50.624;6.014;2022-08-05T14:55:45;6.60;;;2.50;;
23117;SDS011;11728;50.624;6.014;2022-08-05T15:00:45;3.30;;;2.10;;
23117;SDS011;11728;50.624;6.014;2022-08-05T15:05:46;5.50;;;2.35;;
23117;SDS011;11728;50.624;6.014;2022-08-05T15:10:46;5.10;;;2.55;;
23117;SDS011;11728;50.624;6.014;2022-08-05T15:15:47;8.55;;;2.35;;
23117;SDS011;11728;50.624;6.014;2022-08-05T15:20:48;7.80;;;2.22;;
23117;SDS011;11728;50.624;6.014;2022-08-05T15:25:48;6.82;;;2.58;;
23117;SDS011;11728;50.624;6.014;2022-08-05T15:30:49;5.70;;;1.70;;
23117;SDS011;11728;50.624;6.014;2022-08-05T15:35:49;5.82;;;1.88;;
23117;SDS011;11728;50.624;6.014;2022-08-05T15:40:50;5.00;;;1.88;;
23117;SDS011;11728;50.624;6.014;2022-08-05T15:45:50;3.97;;;1.52;;
23117;SDS011;11728;50.624;6.014;2022-08-05T15:50:52;4.50;;;1.30;;
23117;SDS011;11728;50.624;6.014;2022-08-05T15:55:52;3.20;;;1.17;;
23117;SDS011;11728;50.624;6.014;2022-08-05T16:00:52;3.22;;;1.55;;
23117;SDS011;11728;50.624;6.014;2022-08-05T16:05:53;4.47;;;1.35;;
23117;SDS011;11728;50.624;6.014;2022-08-05T16:10:54;4.63;;;1.20;;
23117;SDS011;11728;50.624;6.014;2022-08-05T16:15:54;3.17;;;1.20;;
23117;SDS011;11728;50.624;6.014;2022-08-05T16:20:55;4.13;;;1.30;;
23117;SDS011;11728;50.624;6.014;2022-08-05T16:26:05;3.88;;;1.30;;
23117;SDS011;11728;50.624;6.014;2022-08-05T16:31:07;5.72;;;1.38;;
23117;SDS011;11728;50.624;6.014;2022-08-05T16:36:08;3.63;;;1.20;;
23117;SDS011;11728;50.624;6.014;2022-08-05T16:41:09;6.07;;;1.35;;
23117;SDS011;11728;50.624;6.014;2022-08-05T16:46:09;2.38;;;0.90;;
23117;SDS011;11728;50.624;6.014;2022-08-05T16:51:10;5.82;;;1.10;;
23117;SDS011;11728;50.624;6.014;2022-08-05T16:56:10;6.85;;;0.90;;
23117;SDS011;11728;50.624;6.014;2022-08-05T17:01:11;4.07;;;1.10;;
23117;SDS011;11728;50.624;6.014;2022-08-05T17:06:12;4.53;;;1.00;;
23117;SDS011;11728;50.624;6.014;2022-08-05T17:11:13;2.03;;;0.95;;
23117;SDS011;11728;50.624;6.014;2022-08-05T17:16:13;4.15;;;1.08;;
23117;SDS011;11728;50.624;6.014;2022-08-05T17:21:14;1.45;;;0.73;;
23117;SDS011;11728;50.624;6.014;2022-08-05T17:26:14;3.40;;;0.87;;
23117;SDS011;11728;50.624;6.014;2022-08-05T17:31:15;8.95;;;0.80;;
23117;SDS011;11728;50.624;6.014;2022-08-05T17:36:16;1.80;;;0.73;;
23117;SDS011;11728;50.624;6.014;2022-08-05T17:41:16;3.17;;;0.63;;
23117;SDS011;11728;50.624;6.014;2022-08-05T17:46:17;3.70;;;0.85;;
23117;SDS011;11728;50.624;6.014;2022-08-05T17:51:19;2.97;;;0.80;;
23117;SDS011;11728;50.624;6.014;2022-08-05T17:56:19;3.95;;;0.80;;
23117;SDS011;11728;50.624;6.014;2022-08-05T18:01:20;6.63;;;0.90;;
23117;SDS011;11728;50.624;6.014;2022-08-05T18:06:21;4.25;;;0.75;;
23117;SDS011;11728;50.624;6.014;2022-08-05T18:11:22;2.95;;;0.80;;
23117;SDS011;11728;50.624;6.014;2022-08-05T18:16:22;4.90;;;0.75;;
23117;SDS011;11728;50.624;6.014;2022-08-05T18:21:23;4.22;;;0.60;;
23117;SDS011;11728;50.624;6.014;2022-08-05T18:26:24;1.42;;;0.68;;
23117;SDS011;11728;50.624;6.014;2022-08-05T18:31:25;4.70;;;0.70;;
23117;SDS011;11728;50.624;6.014;2022-08-05T18:36:25;5.55;;;0.80;;
23117;SDS011;11728;50.624;6.014;2022-08-05T18:41:26;4.05;;;0.88;;
23117;SDS011;11728;50.624;6.014;2022-08-05T18:46:27;3.13;;;0.80;;
23117;SDS011;11728;50.624;6.014;2022-08-05T18:51:27;3.92;;;0.63;;
23117;SDS011;11728;50.624;6.014;2022-08-05T18:56:47;3.90;;;0.70;;
23117;SDS011;11728;50.624;6.014;2022-08-05T19:01:47;4.80;;;0.85;;
23117;SDS011;11728;50.624;6.014;2022-08-05T19:06:48;2.75;;;0.90;;
23117;SDS011;11728;50.624;6.014;2022-08-05T19:11:48;1.85;;;0.77;;
23117;SDS011;11728;50.624;6.014;2022-08-05T19:16:49;2.45;;;0.73;;
23117;SDS011;11728;50.624;6.014;2022-08-05T19:21:50;2.67;;;0.90;;
23117;SDS011;11728;50.624;6.014;2022-08-05T19:26:51;2.70;;;1.52;;
23117;SDS011;11728;50.624;6.014;2022-08-05T19:31:51;2.22;;;0.75;;
23117;SDS011;11728;50.624;6.014;2022-08-05T19:36:52;3.90;;;0.90;;
23117;SDS011;11728;50.624;6.014;2022-08-05T19:41:52;2.92;;;0.70;;
23117;SDS011;11728;50.624;6.014;2022-08-05T19:46:53;3.38;;;1.10;;
23117;SDS011;11728;50.624;6.014;2022-08-05T19:51:55;3.63;;;0.93;;
23117;SDS011;11728;50.624;6.014;2022-08-05T19:56:58;5.00;;;0.95;;
23117;SDS011;11728;50.624;6.014;2022-08-05T20:01:59;2.63;;;0.70;;
23117;SDS011;11728;50.624;6.014;2022-08-05T20:07:02;4.05;;;0.75;;
23117;SDS011;11728;50.624;6.014;2022-08-05T20:12:03;2.40;;;0.88;;
23117;SDS011;11728;50.624;6.014;2022-08-05T20:17:04;4.88;;;0.80;;
23117;SDS011;11728;50.624;6.014;2022-08-05T20:22:05;2.95;;;0.80;;
23117;SDS011;11728;50.624;6.014;2022-08-05T20:27:06;4.20;;;0.93;;
23117;SDS011;11728;50.624;6.014;2022-08-05T20:32:06;3.28;;;0.70;;
23117;SDS011;11728;50.624;6.014;2022-08-05T20:37:07;3.20;;;0.70;;
23117;SDS011;11728;50.624;6.014;2022-08-05T20:42:07;5.40;;;1.05;;
23117;SDS011;11728;50.624;6.014;2022-08-05T20:47:08;3.17;;;0.98;;
23117;SDS011;11728;50.624;6.014;2022-08-05T20:52:09;2.53;;;0.90;;
23117;SDS011;11728;50.624;6.014;2022-08-05T20:57:09;6.13;;;1.02;;
23117;SDS011;11728;50.624;6.014;2022-08-05T21:02:10;4.82;;;1.45;;
23117;SDS011;11728;50.624;6.014;2022-08-05T21:07:10;3.05;;;1.00;;
23117;SDS011;11728;50.624;6.014;2022-08-05T21:12:11;4.80;;;1.25;;
23117;SDS011;11728;50.624;6.014;2022-08-05T21:17:11;8.20;;;1.05;;
23117;SDS011;11728;50.624;6.014;2022-08-05T21:22:12;3.55;;;0.77;;
23117;SDS011;11728;50.624;6.014;2022-08-05T21:27:12;5.00;;;1.05;;
23117;SDS011;11728;50.624;6.014;2022-08-05T21:32:13;2.92;;;0.80;;
23117;SDS011;11728;50.624;6.014;2022-08-05T21:37:13;4.88;;;0.90;;
23117;SDS011;11728;50.624;6.014;2022-08-05T21:42:14;5.18;;;0.82;;
23117;SDS011;11728;50.624;6.014;2022-08-05T21:47:15;6.25;;;1.13;;
23117;SDS011;11728;50.624;6.014;2022-08-05T21:52:16;2.95;;;0.90;;
23117;SDS011;11728;50.624;6.014;2022-08-05T21:57:17;6.80;;;0.95;;
23117;SDS011;11728;50.624;6.014;2022-08-05T22:02:17;4.50;;;1.05;;
23117;SDS011;11728;50.624;6.014;2022-08-05T22:07:18;2.70;;;0.90;;
23117;SDS011;11728;50.624;6.014;2022-08-05T22:12:18;2.47;;;0.80;;
23117;SDS011;11728;50.624;6.014;2022-08-05T22:17:19;3.95;;;1.17;;
23117;SDS011;11728;50.624;6.014;2022-08-05T22:22:20;2.95;;;0.90;;
23117;SDS011;11728;50.624;6.014;2022-08-05T22:27:20;6.00;;;0.90;;
23117;SDS011;11728;50.624;6.014;2022-08-05T22:32:40;3.20;;;0.90;;
23117;SDS011;11728;50.624;6.014;2022-08-05T22:37:41;6.00;;;1.42;;
23117;SDS011;11728;50.624;6.014;2022-08-05T22:42:42;3.20;;;0.90;;
23117;SDS011;11728;50.624;6.014;2022-08-05T22:47:42;5.45;;;1.23;;
23117;SDS011;11728;50.624;6.014;2022-08-05T22:52:43;3.42;;;1.08;;
23117;SDS011;11728;50.624;6.014;2022-08-05T22:57:43;6.40;;;1.20;;
23117;SDS011;11728;50.624;6.014;2022-08-05T23:02:44;4.85;;;1.05;;
23117;SDS011;11728;50.624;6.014;2022-08-05T23:07:45;6.00;;;1.10;;
23117;SDS011;11728;50.624;6.014;2022-08-05T23:12:46;3.35;;;1.23;;
23117;SDS011;11728;50.624;6.014;2022-08-05T23:17:47;4.47;;;0.90;;
23117;SDS011;11728;50.624;6.014;2022-08-05T23:22:48;2.92;;;0.90;;
23117;SDS011;11728;50.624;6.014;2022-08-05T23:27:48;5.78;;;1.00;;
23117;SDS011;11728;50.624;6.014;2022-08-05T23:32:49;5.75;;;1.60;;
23117;SDS011;11728;50.624;6.014;2022-08-05T23:37:50;5.10;;;1.33;;
23117;SDS011;11728;50.624;6.014;2022-08-05T23:42:50;5.55;;;1.30;;
23117;SDS011;11728;50.624;6.014;2022-08-05T23:47:51;4.78;;;1.42;;
23117;SDS011;11728;50.624;6.014;2022-08-05T23:52:51;4.55;;;1.15;;
23117;SDS011;11728;50.624;6.014;2022-08-05T23:57:53;3.25;;;1.20;;
